New Town, Mississippi
Current Conditions -  °F | °C
As of 8:15 PM on Saturday 25 Oct 2014 (Local Time) from KUOX Reporting Station
Haze Haze  
Wind Chill: 63°   Ceiling: Unl
Heat Index: 63°   Visibility: 5mi
Dew Point: 61°   Wind: 0mph
Humidity: 94%   Direction: NA
Pressure: 30.07"   Gusts: NA
Location:  34.6336°N, 89.8203°W
Report Text: KUOX 260115Z AUTO 00000KT 5SM BR CLR 17/16 A3007 RMK AO2 PWINO PNO
Loading
Personal Weather Stations






























Interactive Weather Map
Tropical Storm Tracking
New forecast layout! Learn more

10-Day Weather Forecast

Advertisements
Track Severe Weather on mobile